Time;durP1;ratioP1;P1;durP2;ratioP2;P2;SDS_P1;SDS_P2;PMS_P1;PMS_P2;Temp;Humidity;BMP_temperature;BMP_pressure;BME280_temperature;BME280_humidity;BME280_pressure;Samples;Min_cycle;Max_cycle;Signal;HPM_P1;HPM_P2
2021/10/20 00:17:08;;;;;;;;;;;;;;;;;;;;;
2021/10/20 04:01:21;;;;;;;17.95;9.23;;;16.40;99.90;;;;;;4851507;29;20037;-76
2021/10/20 04:11:13;;;;;;;17.45;7.95;;;16.40;99.90;;;;;;4879342;29;20089;-76
2021/10/20 04:14:25;;;;;;;;;;;;;;;;;;;;;
2021/10/20 04:23:57;;;;;;;13.38;8.50;;;16.40;99.90;;;;;;4853100;29;20035;-77
2021/10/20 04:26:23;;;;;;;18.55;8.75;;;16.40;99.90;;;;;;4886146;29;20500;-77
2021/10/20 04:28:49;;;;;;;16.40;7.72;;;16.40;99.90;;;;;;4884912;29;20571;-77
2021/10/20 04:31:17;;;;;;;12.52;8.48;;;16.40;99.90;;;;;;4886934;29;20056;-77
2021/10/20 04:33:43;;;;;;;15.13;9.02;;;16.40;99.90;;;;;;4886633;29;20044;-77
2021/10/20 04:36:09;;;;;;;13.38;8.82;;;16.40;99.90;;;;;;4894827;29;20587;-73
2021/10/20 04:38:35;;;;;;;14.63;8.07;;;16.40;99.90;;;;;;4888765;29;20045;-74
2021/10/20 04:41:00;;;;;;;15.52;8.43;;;16.40;99.90;;;;;;4865816;29;20041;-74
2021/10/20 04:43:26;;;;;;;16.42;7.93;;;16.40;99.90;;;;;;4882376;29;20388;-74
2021/10/20 04:45:54;;;;;;;19.58;8.48;;;16.40;99.90;;;;;;4882836;29;20080;-74
2021/10/20 04:48:20;;;;;;;12.30;7.82;;;16.40;99.90;;;;;;4881819;29;20131;-74
2021/10/20 04:50:46;;;;;;;19.45;8.52;;;16.40;99.90;;;;;;4880883;29;20057;-74
2021/10/20 04:53:12;;;;;;;17.48;8.63;;;16.40;99.90;;;;;;4881461;29;20084;-74
2021/10/20 04:55:38;;;;;;;17.17;8.45;;;16.40;99.90;;;;;;4882169;29;20041;-74
2021/10/20 04:58:07;;;;;;;16.33;8.05;;;16.40;99.90;;;;;;4882268;29;20045;-74
2021/10/20 05:00:34;;;;;;;15.43;8.23;;;16.40;99.90;;;;;;4882193;29;20037;-73
2021/10/20 05:03:00;;;;;;;12.02;7.53;;;16.40;99.90;;;;;;4882851;29;20045;-73
2021/10/20 05:05:28;;;;;;;14.55;8.32;;;16.40;99.90;;;;;;4883409;29;20037;-73
2021/10/20 05:07:55;;;;;;;13.60;7.55;;;16.40;99.90;;;;;;4883058;29;20048;-73
2021/10/20 05:10:23;;;;;;;15.10;8.30;;;16.40;99.90;;;;;;4883050;29;20049;-74
2021/10/20 05:12:49;;;;;;;18.60;8.38;;;16.40;99.90;;;;;;4883242;29;20055;-73
2021/10/20 05:15:16;;;;;;;12.60;7.57;;;16.40;99.90;;;;;;4883221;29;20044;-73
2021/10/20 05:17:43;;;;;;;12.98;7.45;;;16.40;99.90;;;;;;4883135;29;20128;-73
2021/10/20 05:20:11;;;;;;;16.40;7.30;;;16.30;99.90;;;;;;4883378;29;20045;-73
2021/10/20 05:22:38;;;;;;;18.92;8.52;;;16.30;99.90;;;;;;4882473;29;20096;-74
2021/10/20 05:25:05;;;;;;;18.80;7.55;;;16.30;99.90;;;;;;4881191;29;20068;-74
2021/10/20 05:27:31;;;;;;;16.98;7.30;;;16.30;99.90;;;;;;4880930;29;20045;-75
2021/10/20 05:30:00;;;;;;;16.63;7.68;;;16.30;99.90;;;;;;4880837;29;20049;-75
2021/10/20 05:32:27;;;;;;;16.10;7.45;;;16.30;99.90;;;;;;4880721;29;20044;-74
2021/10/20 05:34:53;;;;;;;13.48;7.93;;;16.30;99.90;;;;;;4882126;29;20072;-74
2021/10/20 05:37:20;;;;;;;18.45;8.15;;;16.30;99.90;;;;;;4882774;29;20048;-74
2021/10/20 05:39:48;;;;;;;25.27;8.43;;;16.30;99.90;;;;;;4882520;29;20055;-74
2021/10/20 05:42:15;;;;;;;14.90;7.80;;;16.30;99.90;;;;;;4864549;29;20063;-74
2021/10/20 05:44:41;;;;;;;11.38;7.22;;;16.30;99.90;;;;;;4869088;29;20135;-74
2021/10/20 05:47:07;;;;;;;15.43;8.10;;;16.30;99.90;;;;;;4878552;29;20060;-74
2021/10/20 05:49:33;;;;;;;16.70;7.20;;;16.30;99.90;;;;;;4879787;29;20044;-74
2021/10/20 05:51:59;;;;;;;13.02;6.68;;;16.30;99.90;;;;;;4879942;29;20057;-74
2021/10/20 05:54:27;;;;;;;15.60;8.05;;;16.30;99.90;;;;;;4879286;29;20414;-74
2021/10/20 05:56:53;;;;;;;12.07;7.72;;;16.30;99.90;;;;;;4880330;29;20037;-74
2021/10/20 05:59:22;;;;;;;13.77;8.07;;;16.30;99.90;;;;;;4880376;29;20092;-74
2021/10/20 06:01:49;;;;;;;16.65;7.70;;;16.30;99.90;;;;;;4879886;29;20077;-74
2021/10/20 06:04:16;;;;;;;18.88;7.07;;;16.30;99.90;;;;;;4864426;29;20052;-74
2021/10/20 06:06:42;;;;;;;15.55;7.85;;;16.30;99.90;;;;;;4881417;29;20089;-74
2021/10/20 06:09:08;;;;;;;14.30;6.97;;;16.30;99.90;;;;;;4881392;29;20049;-74
2021/10/20 06:11:34;;;;;;;11.25;7.03;;;16.40;99.90;;;;;;4865358;29;20574;-74
2021/10/20 06:14:00;;;;;;;13.13;7.43;;;16.40;99.90;;;;;;4881338;29;20136;-74
2021/10/20 06:16:26;;;;;;;10.52;6.93;;;16.30;99.90;;;;;;4881513;29;20040;-74
2021/10/20 06:18:52;;;;;;;16.08;7.45;;;16.40;99.90;;;;;;4882413;29;20053;-74
2021/10/20 06:21:18;;;;;;;15.00;7.45;;;16.40;99.90;;;;;;4881570;29;20374;-75
2021/10/20 06:23:44;;;;;;;15.73;7.00;;;16.40;99.90;;;;;;4881341;29;20062;-74
2021/10/20 06:26:10;;;;;;;19.30;7.32;;;16.40;99.90;;;;;;4881667;29;20041;-82
2021/10/20 06:28:36;;;;;;;20.50;7.70;;;16.40;99.90;;;;;;4881335;29;20049;-81
2021/10/20 06:31:02;;;;;;;17.73;7.10;;;16.40;99.90;;;;;;4880142;29;20508;-74
2021/10/20 06:33:28;;;;;;;14.27;7.05;;;16.40;99.90;;;;;;4880416;29;20064;-75
2021/10/20 06:35:57;;;;;;;11.65;6.97;;;16.40;99.90;;;;;;4881454;29;20084;-75
2021/10/20 06:38:25;;;;;;;18.60;6.97;;;16.40;99.90;;;;;;4881839;29;20053;-74
2021/10/20 06:40:51;;;;;;;15.00;7.28;;;16.40;99.90;;;;;;4881450;29;20064;-75
2021/10/20 06:43:17;;;;;;;13.10;6.82;;;16.40;99.90;;;;;;4881404;29;20071;-75
2021/10/20 06:45:43;;;;;;;11.63;6.22;;;16.40;99.90;;;;;;4881214;29;20037;-74
2021/10/20 06:48:11;;;;;;;15.25;6.57;;;16.40;99.90;;;;;;4881588;29;20148;-75
2021/10/20 06:50:37;;;;;;;15.20;6.95;;;16.40;99.90;;;;;;4881121;29;20052;-74
2021/10/20 06:53:03;;;;;;;9.60;6.05;;;16.50;99.90;;;;;;4881282;29;20049;-74
2021/10/20 06:55:29;;;;;;;18.45;7.45;;;16.40;99.90;;;;;;4881488;29;20041;-74
2021/10/20 06:57:55;;;;;;;16.83;7.00;;;16.50;99.90;;;;;;4880751;29;20125;-74
2021/10/20 07:00:21;;;;;;;16.63;6.97;;;16.50;99.90;;;;;;4881663;29;20064;-74
2021/10/20 07:02:47;;;;;;;20.40;7.00;;;16.40;99.90;;;;;;4881204;29;20125;-74
2021/10/20 07:05:19;;;;;;;14.10;7.18;;;16.50;99.90;;;;;;4881624;29;20132;-74
2021/10/20 07:07:45;;;;;;;15.77;6.88;;;16.50;99.90;;;;;;4880916;29;20129;-74
2021/10/20 07:10:11;;;;;;;16.33;6.93;;;16.50;99.90;;;;;;4881002;29;20127;-74
2021/10/20 07:12:39;;;;;;;11.25;5.75;;;16.60;99.90;;;;;;4880975;29;20037;-73
2021/10/20 07:15:06;;;;;;;12.18;6.25;;;16.70;99.90;;;;;;4878748;29;20408;-73
2021/10/20 07:17:32;;;;;;;11.32;6.05;;;16.90;96.80;;;;;;4879000;29;20076;-74
2021/10/20 07:19:57;;;;;;;13.77;6.47;;;16.80;97.40;;;;;;4880512;29;20076;-73
2021/10/20 07:22:23;;;;;;;13.25;6.40;;;16.80;99.90;;;;;;4880737;29;20088;-73
2021/10/20 07:24:49;;;;;;;13.18;7.15;;;16.70;99.90;;;;;;4880948;29;20485;-74
2021/10/20 07:27:15;;;;;;;15.65;7.10;;;16.60;99.90;;;;;;4880453;29;20100;-73
2021/10/20 07:29:44;;;;;;;13.35;6.32;;;16.60;99.90;;;;;;4880403;29;20076;-73
2021/10/20 07:32:10;;;;;;;17.85;7.28;;;16.50;99.90;;;;;;4880923;29;20048;-74
2021/10/20 07:34:36;;;;;;;19.10;7.00;;;16.50;99.90;;;;;;4880906;29;20560;-73
2021/10/20 07:37:02;;;;;;;14.93;7.10;;;16.50;99.90;;;;;;4880803;29;20052;-73
2021/10/20 07:39:28;;;;;;;15.82;6.75;;;16.50;99.90;;;;;;4880770;29;20505;-73
2021/10/20 07:41:53;;;;;;;14.05;6.32;;;16.50;99.90;;;;;;4880635;29;20036;-73
2021/10/20 07:44:19;;;;;;;12.95;6.55;;;16.60;99.90;;;;;;4880941;29;20044;-73
2021/10/20 07:46:45;;;;;;;15.32;6.68;;;16.70;99.90;;;;;;4880724;29;20049;-73
2021/10/20 07:49:12;;;;;;;18.25;6.80;;;16.70;99.90;;;;;;4880663;29;20057;-74
2021/10/20 07:51:38;;;;;;;11.10;6.60;;;16.70;99.90;;;;;;4879749;29;20052;-73
2021/10/20 07:54:04;;;;;;;14.57;5.95;;;16.70;99.90;;;;;;4879595;29;20056;-73
2021/10/20 07:56:35;;;;;;;18.67;6.75;;;16.70;99.90;;;;;;4878652;29;20037;-73
2021/10/20 07:59:02;;;;;;;16.45;6.03;;;16.80;99.90;;;;;;4863858;29;20140;-73
2021/10/20 08:01:28;;;;;;;17.80;6.95;;;16.80;99.90;;;;;;4880377;29;20470;-73
2021/10/20 08:03:54;;;;;;;13.75;7.40;;;16.70;99.90;;;;;;4879620;29;20041;-73
2021/10/20 08:06:20;;;;;;;17.55;6.32;;;16.80;99.90;;;;;;4880528;29;20101;-73
2021/10/20 08:08:46;;;;;;;12.80;6.45;;;16.80;99.90;;;;;;4882238;29;20500;-73
2021/10/20 08:11:12;;;;;;;11.60;6.68;;;16.80;99.90;;;;;;4884291;29;20048;-73
2021/10/20 08:13:41;;;;;;;12.75;5.93;;;16.70;99.90;;;;;;4884272;29;20072;-73
2021/10/20 08:16:07;;;;;;;15.52;6.30;;;16.80;99.90;;;;;;4883859;29;20052;-73
2021/10/20 08:18:32;;;;;;;13.18;6.10;;;16.90;99.60;;;;;;4884893;29;20045;-73
2021/10/20 08:20:58;;;;;;;13.68;5.78;;;16.90;95.60;;;;;;4883921;29;20044;-73
2021/10/20 08:23:26;;;;;;;13.27;6.07;;;16.80;98.60;;;;;;4883899;29;20088;-73
2021/10/20 08:25:52;;;;;;;14.15;6.70;;;16.90;98.20;;;;;;4884028;29;20045;-73
2021/10/20 08:28:18;;;;;;;13.73;5.88;;;16.90;96.70;;;;;;4884347;29;20045;-73
2021/10/20 08:30:44;;;;;;;11.68;5.60;;;17.00;91.50;;;;;;4882611;29;20485;-73
2021/10/20 08:33:10;;;;;;;13.52;5.70;;;17.00;90.50;;;;;;4884279;29;20037;-73
2021/10/20 08:35:39;;;;;;;15.60;5.68;;;17.00;91.60;;;;;;4883926;29;20557;-73
2021/10/20 08:38:05;;;;;;;14.10;6.50;;;17.00;89.20;;;;;;4884174;29;20045;-73
2021/10/20 08:40:33;;;;;;;16.17;6.38;;;17.00;92.10;;;;;;4883828;29;20064;-73
2021/10/20 08:42:59;;;;;;;14.30;5.63;;;16.90;92.20;;;;;;4883798;29;20052;-73
2021/10/20 08:45:26;;;;;;;13.57;5.95;;;17.00;95.00;;;;;;4883480;29;20405;-73
2021/10/20 08:47:52;;;;;;;14.82;6.40;;;16.90;95.80;;;;;;4883244;29;20067;-73
2021/10/20 08:50:21;;;;;;;13.38;6.57;;;16.80;99.90;;;;;;4883682;29;20072;-73
2021/10/20 08:52:48;;;;;;;14.00;6.13;;;16.80;99.90;;;;;;4883035;29;20049;-73
2021/10/20 08:55:16;;;;;;;18.77;6.78;;;16.90;99.90;;;;;;4883623;29;20060;-73
2021/10/20 08:57:44;;;;;;;13.15;6.03;;;16.90;99.90;;;;;;4883402;29;20052;-73
2021/10/20 09:00:13;;;;;;;11.40;5.22;;;17.10;97.10;;;;;;4882751;29;20533;-73
2021/10/20 09:02:42;;;;;;;14.93;6.00;;;17.10;92.80;;;;;;4882830;29;20083;-73
2021/10/20 09:05:10;;;;;;;14.95;6.05;;;17.10;92.00;;;;;;4883154;29;20536;-73
2021/10/20 09:07:39;;;;;;;12.15;5.40;;;17.20;81.10;;;;;;4883182;29;20048;-73
2021/10/20 09:10:07;;;;;;;11.05;5.32;;;17.20;77.70;;;;;;4882993;29;20037;-73
2021/10/20 09:12:40;;;;;;;16.42;6.50;;;17.20;84.80;;;;;;4883084;29;20160;-73
2021/10/20 09:15:08;;;;;;;14.13;6.07;;;17.20;86.80;;;;;;4883018;29;20532;-73
2021/10/20 09:17:46;;;;;;;10.65;5.20;;;17.10;91.30;;;;;;4882653;29;20048;-73
2021/10/20 09:20:38;;;;;;;13.98;5.28;;;17.20;86.50;;;;;;4882457;29;20064;-73
2021/10/20 09:23:07;;;;;;;12.95;5.53;;;17.20;75.50;;;;;;4883457;29;20056;-73
2021/10/20 09:25:37;;;;;;;16.88;5.57;;;17.30;72.40;;;;;;4883307;29;20033;-73
2021/10/20 09:28:06;;;;;;;10.93;5.25;;;17.30;72.90;;;;;;4883034;29;20049;-73
2021/10/20 09:30:32;;;;;;;12.27;5.45;;;17.30;76.80;;;;;;4882782;29;20051;-73
2021/10/20 09:32:59;;;;;;;9.60;5.25;;;17.20;75.70;;;;;;4881244;29;20072;-73
2021/10/20 09:35:29;;;;;;;11.25;5.93;;;17.40;73.80;;;;;;4882288;29;20089;-73
2021/10/20 09:37:58;;;;;;;15.05;5.15;;;17.80;57.40;;;;;;4882647;29;20049;-73
2021/10/20 09:40:25;;;;;;;9.60;4.50;;;18.30;32.40;;;;;;4881259;29;20041;-73
2021/10/20 09:42:56;;;;;;;14.27;5.60;;;18.30;18.80;;;;;;4882219;29;20055;-73
2021/10/20 09:45:23;;;;;;;12.20;5.30;;;18.30;23.50;;;;;;4882563;29;20051;-73
2021/10/20 09:47:50;;;;;;;14.90;6.00;;;18.40;22.10;;;;;;4882238;29;20049;-73
2021/10/20 09:50:19;;;;;;;13.10;5.10;;;18.20;26.50;;;;;;4882342;29;20158;-73
2021/10/20 09:52:52;;;;;;;8.98;4.90;;;18.00;31.30;;;;;;4881766;29;20060;-73
2021/10/20 09:55:32;;;;;;;13.35;5.35;;;17.80;37.10;;;;;;4882805;29;20488;-74
2021/10/20 09:58:11;;;;;;;13.48;5.00;;;17.80;42.30;;;;;;4882456;29;20076;-73
2021/10/20 10:00:37;;;;;;;13.00;5.03;;;17.70;46.80;;;;;;4882242;29;20045;-73
2021/10/20 10:03:07;;;;;;;11.63;4.90;;;17.70;45.90;;;;;;4881669;29;20036;-73
2021/10/20 10:05:34;;;;;;;14.93;5.20;;;17.60;48.10;;;;;;4882124;29;20045;-73
2021/10/20 10:08:00;;;;;;;11.90;4.53;;;17.60;55.60;;;;;;4882325;29;20037;-73
2021/10/20 10:10:25;;;;;;;11.65;4.90;;;17.60;54.20;;;;;;4881985;29;20048;-73
2021/10/20 10:13:22;;;;;;;10.48;4.47;;;17.60;57.80;;;;;;4881677;29;20072;-73
2021/10/20 10:15:49;;;;;;;12.23;5.22;;;17.60;59.90;;;;;;4867507;29;20045;-73
2021/10/20 10:18:16;;;;;;;15.02;5.13;;;17.50;61.80;;;;;;4870829;29;20079;-73
2021/10/20 10:20:47;;;;;;;12.15;5.07;;;17.60;60.20;;;;;;4877980;29;20049;-73
2021/10/20 10:23:24;;;;;;;13.23;5.13;;;17.60;64.90;;;;;;4858590;29;20571;-73
2021/10/20 10:26:16;;;;;;;15.45;5.28;;;17.50;70.80;;;;;;4863705;29;20034;-73
2021/10/20 10:28:42;;;;;;;10.15;4.75;;;17.50;75.70;;;;;;4858190;29;20441;-73
2021/10/20 10:31:11;;;;;;;12.73;4.90;;;17.50;74.40;;;;;;4867356;29;20049;-73
2021/10/20 10:33:51;;;;;;;11.77;5.22;;;17.50;71.00;;;;;;4871909;29;20536;-73
2021/10/20 10:36:28;;;;;;;13.07;5.40;;;17.60;72.50;;;;;;4878569;29;20052;-74
2021/10/20 10:39:10;;;;;;;10.27;5.28;;;17.50;73.80;;;;;;4876947;29;20049;-74
2021/10/20 10:41:49;;;;;;;9.40;5.47;;;17.50;77.60;;;;;;4878241;29;20077;-74
2021/10/20 10:44:27;;;;;;;11.65;5.22;;;17.50;82.00;;;;;;4866705;29;20033;-74
2021/10/20 10:47:20;;;;;;;10.73;4.97;;;17.50;81.10;;;;;;4871446;29;20041;-74
2021/10/20 10:49:53;;;;;;;12.10;4.80;;;17.50;80.20;;;;;;4860149;29;20057;-74
2021/10/20 10:52:39;;;;;;;14.55;5.88;;;17.40;84.60;;;;;;4878375;29;20060;-74
2021/10/20 10:55:22;;;;;;;11.85;5.07;;;17.40;88.70;;;;;;4872428;29;20096;-74
2021/10/20 10:57:58;;;;;;;10.90;5.28;;;17.40;92.10;;;;;;4875358;29;20489;-74
2021/10/20 11:00:45;;;;;;;12.82;5.75;;;17.40;94.00;;;;;;4879830;29;20071;-73
2021/10/20 11:03:13;;;;;;;10.32;4.70;;;17.40;86.60;;;;;;4864081;29;20041;-73
2021/10/20 11:05:49;;;;;;;15.15;5.57;;;17.50;86.00;;;;;;4854905;29;20037;-74
2021/10/20 11:08:18;;;;;;;12.05;5.25;;;17.40;92.00;;;;;;4876747;29;20053;-73
2021/10/20 11:10:51;;;;;;;14.75;5.80;;;17.40;92.50;;;;;;4871596;29;20041;-74
2021/10/20 11:13:18;;;;;;;19.67;6.07;;;17.40;90.30;;;;;;4880078;29;20420;-73
2021/10/20 11:15:45;;;;;;;15.48;5.75;;;17.40;93.60;;;;;;4880121;29;20084;-74
2021/10/20 11:18:11;;;;;;;11.60;5.53;;;17.40;92.90;;;;;;4879361;29;20056;-73
2021/10/20 11:20:42;;;;;;;11.07;5.20;;;17.40;91.10;;;;;;4879655;29;20064;-73
2021/10/20 11:23:14;;;;;;;11.50;4.75;;;17.50;92.20;;;;;;4868983;29;20052;-73
2021/10/20 11:25:44;;;;;;;11.25;5.13;;;17.50;92.80;;;;;;4863112;29;20042;-74
2021/10/20 11:28:10;;;;;;;12.67;6.07;;;17.50;85.50;;;;;;4842310;29;20067;-73
2021/10/20 11:30:38;;;;;;;10.85;5.25;;;17.60;82.70;;;;;;4873752;29;20051;-74
2021/10/20 11:33:18;;;;;;;17.05;5.85;;;17.60;83.80;;;;;;4864005;29;20413;-74
2021/10/20 11:35:46;;;;;;;13.18;5.28;;;17.60;81.60;;;;;;4869355;29;20033;-74
2021/10/20 11:38:15;;;;;;;10.35;5.05;;;17.80;71.80;;;;;;4862385;29;20533;-73
2021/10/20 11:40:54;;;;;;;12.73;5.50;;;17.80;66.20;;;;;;4875407;29;20076;-74
2021/10/20 11:43:35;;;;;;;9.48;5.00;;;17.60;79.30;;;;;;4844127;29;20210;-74
2021/10/20 11:46:02;;;;;;;17.85;4.97;;;17.60;75.60;;;;;;4845797;29;20124;-73
2021/10/20 11:48:28;;;;;;;15.32;5.50;;;17.80;70.40;;;;;;4847164;29;20050;-74
2021/10/20 11:51:15;;;;;;;13.35;5.13;;;17.90;56.40;;;;;;4852694;29;20071;-74
2021/10/20 11:53:43;;;;;;;9.13;4.95;;;17.80;59.20;;;;;;4866853;29;20555;-74
2021/10/20 11:56:11;;;;;;;10.73;4.80;;;17.80;60.00;;;;;;4890619;29;20474;-73
2021/10/20 11:58:38;;;;;;;11.98;5.85;;;18.10;50.60;;;;;;4870139;29;20080;-74
2021/10/20 12:01:07;;;;;;;12.55;5.05;;;18.00;45.60;;;;;;4883560;29;20032;-73
2021/10/20 12:03:38;;;;;;;9.18;4.50;;;18.10;43.70;;;;;;4884011;29;20527;-73
2021/10/20 12:06:09;;;;;;;12.93;5.05;;;18.30;29.90;;;;;;4871731;29;20077;-73
2021/10/20 12:08:38;;;;;;;7.50;4.80;;;18.20;33.60;;;;;;4868000;29;20046;-73
2021/10/20 12:11:05;;;;;;;11.07;5.25;;;18.10;41.40;;;;;;4865262;29;20044;-73
2021/10/20 12:13:35;;;;;;;10.93;4.85;;;18.10;40.70;;;;;;4871379;29;20067;-73
2021/10/20 12:16:01;;;;;;;11.07;4.63;;;18.40;24.00;;;;;;4876989;29;20033;-73
2021/10/20 12:18:29;;;;;;;10.02;4.90;;;18.50;17.30;;;;;;4864664;29;20519;-73
2021/10/20 12:20:58;;;;;;;9.85;5.07;;;18.50;18.70;;;;;;4872435;29;20080;-74
2021/10/20 12:23:31;;;;;;;12.43;4.68;;;18.50;20.00;;;;;;4883621;29;20037;-73
2021/10/20 12:25:58;;;;;;;11.35;4.57;;;18.40;21.50;;;;;;4883841;29;20040;-73
2021/10/20 12:28:25;;;;;;;15.02;5.03;;;18.70;14.80;;;;;;4883137;29;20132;-73
2021/10/20 12:30:51;;;;;;;12.88;4.95;;;19.00;7.00;;;;;;4864377;29;20502;-73
2021/10/20 12:33:22;;;;;;;10.30;4.78;;;18.80;6.10;;;;;;4865146;29;20042;-73
2021/10/20 12:35:49;;;;;;;10.27;4.80;;;18.50;14.90;;;;;;4873506;29;20513;-73
2021/10/20 12:38:16;;;;;;;9.50;4.63;;;18.40;17.40;;;;;;4865538;29;20049;-73
2021/10/20 12:40:45;;;;;;;7.03;4.10;;;18.30;21.00;;;;;;4871088;29;20049;-73
2021/10/20 12:43:15;;;;;;;12.50;5.10;;;18.40;19.40;;;;;;4883298;29;20045;-73
2021/10/20 12:45:48;;;;;;;9.18;5.07;;;18.50;16.90;;;;;;4878479;29;20037;-73
2021/10/20 12:48:15;;;;;;;12.30;4.80;;;18.70;10.50;;;;;;4864333;29;20045;-73
2021/10/20 12:50:46;;;;;;;10.13;4.47;;;18.60;9.00;;;;;;4864642;29;20040;-73
2021/10/20 12:53:13;;;;;;;;;;;18.40;14.10;;;;;;4864132;29;20067;-73
2021/10/20 12:55:41;;;;;;;8.35;3.92;;;18.30;16.10;;;;;;4866927;29;20379;-73
2021/10/20 12:58:19;;;;;;;15.05;5.32;;;18.20;19.10;;;;;;4876822;29;20049;-73
2021/10/20 13:00:46;;;;;;;11.60;4.90;;;18.10;24.00;;;;;;4864007;29;20037;-73
2021/10/20 13:03:13;;;;;;;8.95;4.50;;;18.00;31.00;;;;;;4872237;29;20049;-73
2021/10/20 13:05:39;;;;;;;10.30;4.60;;;18.10;28.90;;;;;;4864581;29;20490;-73
2021/10/20 13:08:06;;;;;;;9.60;4.97;;;18.20;27.20;;;;;;4864335;29;20186;-74
2021/10/20 13:10:31;;;;;;;9.40;4.47;;;18.20;22.10;;;;;;4864195;29;20100;-74
2021/10/20 13:12:57;;;;;;;9.13;4.72;;;18.30;21.90;;;;;;4863142;29;20040;-74
2021/10/20 13:15:30;;;;;;;10.90;5.05;;;18.30;22.30;;;;;;4860424;29;20552;-74
2021/10/20 13:18:00;;;;;;;10.48;4.57;;;18.30;19.90;;;;;;4869518;29;20041;-74
2021/10/20 13:20:27;;;;;;;10.45;4.82;;;18.20;21.50;;;;;;4881155;29;20040;-75
2021/10/20 13:23:00;;;;;;;12.65;5.05;;;18.10;29.00;;;;;;4880999;29;20044;-74
2021/10/20 13:26:19;;;;;;;10.32;4.82;;;17.90;33.90;;;;;;4877101;29;20124;-75
2021/10/20 13:29:22;;;;;;;11.18;4.40;;;17.90;40.50;;;;;;4849885;29;20061;-75
2021/10/20 13:32:09;;;;;;;13.02;4.55;;;18.00;37.80;;;;;;4871969;29;20037;-75
2021/10/20 13:41:54;;;;;;;14.27;4.85;;;18.00;34.20;;;;;;4860801;29;20143;-76
2021/10/20 13:44:26;;;;;;;9.85;4.60;;;18.10;31.10;;;;;;4872244;29;20044;-75
2021/10/20 13:54:46;;;;;;;11.98;4.55;;;18.10;32.80;;;;;;4854106;29;20100;-76
2021/10/20 14:03:39;;;;;;;11.82;4.32;;;18.10;41.40;;;;;;4860743;29;20542;-75
2021/10/20 17:55:46;;;;;;;10.75;4.22;;;16.60;99.90;;;;;;4879666;29;20063;-76
2021/10/20 17:58:12;;;;;;;19.58;4.53;;;16.50;99.90;;;;;;4865789;29;20406;-78
2021/10/20 18:00:41;;;;;;;16.92;4.80;;;16.50;99.90;;;;;;4872611;29;20505;-74
2021/10/20 18:03:09;;;;;;;12.85;4.72;;;16.50;99.90;;;;;;4866771;29;20418;-77
2021/10/20 18:05:35;;;;;;;15.63;5.32;;;16.50;99.90;;;;;;4845192;29;20056;-72
2021/10/20 18:08:02;;;;;;;17.08;5.05;;;16.50;99.90;;;;;;4857111;29;20409;-72
2021/10/20 18:10:32;;;;;;;13.70;4.55;;;16.50;99.90;;;;;;4867345;29;20878;-72
2021/10/20 18:12:58;;;;;;;9.67;4.17;;;16.50;99.90;;;;;;4855147;29;20065;-72
2021/10/20 18:15:25;;;;;;;15.60;4.47;;;16.50;99.90;;;;;;4871467;29;20045;-72
2021/10/20 18:17:51;;;;;;;18.17;5.40;;;16.50;99.90;;;;;;4862053;29;20128;-72
2021/10/20 18:20:21;;;;;;;14.98;5.00;;;16.50;99.90;;;;;;4861527;29;20075;-72
2021/10/20 18:22:48;;;;;;;15.55;4.55;;;16.50;99.90;;;;;;4864178;29;20046;-72
2021/10/20 18:25:18;;;;;;;15.05;5.38;;;16.50;99.90;;;;;;4863667;29;20060;-72
2021/10/20 18:27:46;;;;;;;17.52;4.97;;;16.50;99.90;;;;;;4870696;29;20053;-72
2021/10/20 18:30:16;;;;;;;15.00;4.95;;;16.50;99.90;;;;;;4865024;29;20540;-72
2021/10/20 18:32:42;;;;;;;14.63;4.80;;;16.50;99.90;;;;;;4867039;29;20111;-72
2021/10/20 18:35:08;;;;;;;15.20;5.20;;;16.50;99.90;;;;;;4862814;29;20493;-73
2021/10/20 18:37:38;;;;;;;15.57;4.97;;;16.50;99.90;;;;;;4862438;29;20077;-72
2021/10/20 18:40:06;;;;;;;15.18;5.07;;;16.50;99.90;;;;;;4869192;29;20051;-71
2021/10/20 18:42:39;;;;;;;16.48;4.63;;;16.50;99.90;;;;;;4874450;29;20041;-72
2021/10/20 18:45:07;;;;;;;11.43;5.20;;;16.60;99.90;;;;;;4874278;29;20063;-71
2021/10/20 18:47:33;;;;;;;17.98;4.65;;;16.50;99.90;;;;;;4874075;29;20153;-71
2021/10/20 18:50:04;;;;;;;11.43;4.35;;;16.50;99.90;;;;;;4875598;29;20052;-72
2021/10/20 18:52:30;;;;;;;14.02;5.13;;;16.50;99.90;;;;;;4879601;29;20076;-70
2021/10/20 18:54:55;;;;;;;13.00;4.57;;;16.60;99.90;;;;;;4878714;29;20075;-72
2021/10/20 18:57:23;;;;;;;13.05;4.45;;;16.50;99.90;;;;;;4875232;29;20065;-71
2021/10/20 18:59:50;;;;;;;9.43;4.22;;;16.60;99.90;;;;;;4869918;29;20049;-71
2021/10/20 19:02:15;;;;;;;14.40;4.57;;;16.50;99.90;;;;;;4876343;29;20501;-70
2021/10/20 19:04:41;;;;;;;13.02;4.38;;;16.50;99.90;;;;;;4866642;29;20132;-70
2021/10/20 19:07:07;;;;;;;10.48;4.25;;;16.50;99.90;;;;;;4880147;29;20497;-71
2021/10/20 19:09:33;;;;;;;8.90;4.40;;;16.60;99.90;;;;;;4880598;29;20076;-70
2021/10/20 19:12:00;;;;;;;11.85;3.90;;;16.60;99.90;;;;;;4880813;29;20511;-71
2021/10/20 19:14:26;;;;;;;21.70;4.70;;;16.50;99.90;;;;;;4874623;29;20048;-71
2021/10/20 19:16:54;;;;;;;16.05;4.25;;;16.60;99.90;;;;;;4860159;29;20049;-70
2021/10/20 19:19:21;;;;;;;11.90;3.88;;;16.50;99.90;;;;;;4859862;29;20509;-70
2021/10/20 19:21:47;;;;;;;13.23;4.88;;;16.60;99.90;;;;;;4873649;29;20040;-70
2021/10/20 19:24:13;;;;;;;11.10;4.25;;;16.60;99.90;;;;;;4880847;29;20041;-70
2021/10/20 19:26:41;;;;;;;13.27;4.68;;;16.60;99.90;;;;;;4867659;29;20524;-72
2021/10/20 19:29:12;;;;;;;13.57;3.85;;;16.60;99.90;;;;;;4880451;29;20041;-70
2021/10/20 19:31:38;;;;;;;;;;;16.60;99.90;;;;;;4880704;29;20169;-70
2021/10/20 19:34:04;;;;;;;11.35;4.05;;;16.50;99.90;;;;;;4873935;29;20391;-70
2021/10/20 19:36:31;;;;;;;12.13;4.43;;;16.50;99.90;;;;;;4880488;29;20080;-71
2021/10/20 19:38:57;;;;;;;16.88;4.28;;;16.50;99.90;;;;;;4879218;29;20041;-71
2021/10/20 19:41:23;;;;;;;11.20;4.35;;;16.50;99.90;;;;;;4876313;29;20056;-71
2021/10/20 19:43:49;;;;;;;11.23;4.72;;;16.50;99.90;;;;;;4880368;29;20056;-70
2021/10/20 19:46:15;;;;;;;14.23;4.93;;;16.50;99.90;;;;;;4879987;29;20413;-71
2021/10/20 19:48:41;;;;;;;12.93;4.20;;;16.40;99.90;;;;;;4880368;29;20053;-70
2021/10/20 19:51:07;;;;;;;9.30;3.97;;;16.40;99.90;;;;;;4880609;29;20041;-70
2021/10/20 19:53:34;;;;;;;12.40;4.05;;;16.40;99.90;;;;;;4879916;29;20051;-70
2021/10/20 19:56:01;;;;;;;11.80;4.18;;;16.40;99.90;;;;;;4870815;29;20041;-70
2021/10/20 19:58:27;;;;;;;11.38;4.25;;;16.40;99.90;;;;;;4873543;29;20049;-69
2021/10/20 20:00:53;;;;;;;10.73;3.72;;;16.40;99.90;;;;;;4862920;29;20120;-70
2021/10/20 20:03:19;;;;;;;13.50;4.53;;;16.40;99.90;;;;;;4867446;29;20088;-70
2021/10/20 20:05:45;;;;;;;14.90;4.53;;;16.40;99.90;;;;;;4869804;29;20073;-71
2021/10/20 20:08:11;;;;;;;12.38;3.88;;;16.40;99.90;;;;;;4862548;29;20045;-71
2021/10/20 20:10:38;;;;;;;12.30;5.40;;;16.30;99.90;;;;;;4857205;29;20053;-71
2021/10/20 20:13:04;;;;;;;11.25;3.95;;;16.40;99.90;;;;;;4866397;29;20061;-71
2021/10/20 20:15:31;;;;;;;16.10;4.93;;;16.40;99.90;;;;;;4869131;29;20067;-71
2021/10/20 20:17:57;;;;;;;14.18;4.35;;;16.40;99.90;;;;;;4869780;29;20040;-71
2021/10/20 20:20:23;;;;;;;9.43;4.38;;;16.40;99.90;;;;;;4883880;29;20107;-72
2021/10/20 20:22:56;;;;;;;11.43;4.85;;;16.40;99.90;;;;;;4883701;29;20185;-72
2021/10/20 20:25:26;;;;;;;16.38;5.30;;;16.40;99.90;;;;;;4881768;29;20080;-72
2021/10/20 20:27:52;;;;;;;10.67;3.90;;;16.40;99.90;;;;;;4865125;29;20045;-73
2021/10/20 20:30:18;;;;;;;9.55;4.68;;;16.40;99.90;;;;;;4863931;29;20053;-73
2021/10/20 20:32:45;;;;;;;10.30;4.70;;;16.40;99.90;;;;;;4863324;29;20055;-73
2021/10/20 20:35:14;;;;;;;13.23;5.10;;;16.40;99.90;;;;;;4865409;29;20049;-73
2021/10/20 20:37:40;;;;;;;15.55;4.70;;;16.30;99.90;;;;;;4862352;29;20516;-72
2021/10/20 20:40:06;;;;;;;8.32;3.50;;;16.30;99.90;;;;;;4862929;29;20446;-73
2021/10/20 20:42:34;;;;;;;9.13;4.60;;;16.30;99.90;;;;;;4862982;29;20140;-72
2021/10/20 20:45:00;;;;;;;10.07;3.88;;;16.30;99.90;;;;;;4863246;29;20048;-73
2021/10/20 20:47:26;;;;;;;8.35;3.58;;;16.30;99.90;;;;;;4876038;29;20053;-73
2021/10/20 20:49:52;;;;;;;11.00;3.72;;;16.30;99.90;;;;;;4881085;29;20691;-72
2021/10/20 20:52:18;;;;;;;12.27;3.88;;;16.30;99.90;;;;;;4881373;29;20053;-72
2021/10/20 20:54:44;;;;;;;12.18;4.00;;;16.30;99.90;;;;;;4883084;29;20041;-72
2021/10/20 20:57:10;;;;;;;7.75;3.60;;;16.30;99.90;;;;;;4883136;29;20065;-73
2021/10/20 20:59:36;;;;;;;10.23;3.65;;;16.30;99.90;;;;;;4883341;29;20102;-73
2021/10/20 21:02:03;;;;;;;9.52;4.05;;;16.30;99.90;;;;;;4883132;29;20587;-72
2021/10/20 21:04:29;;;;;;;8.60;3.50;;;16.30;99.90;;;;;;4882978;29;20121;-72
2021/10/20 21:06:54;;;;;;;9.02;3.63;;;16.30;99.90;;;;;;4883221;29;20501;-72
2021/10/20 21:09:20;;;;;;;11.63;4.10;;;16.30;99.90;;;;;;4883212;29;20484;-72
2021/10/20 21:11:46;;;;;;;15.23;4.22;;;16.30;99.90;;;;;;4883159;29;20048;-72